<?xml version="1.0" encoding="UTF-8" standalone="no" ?>
<gpx xmlns="http://www.topografix.com/GPX/1/1" xmlns:xsi="http://www.w3.org/2001/XMLSchema-instance" xsi:schemaLocation="http://www.topografix.com/GPX/1/1 http://www.topografix.com/GPX/1/1/gpx.xsd" version="1.1" creator="VisuGPX - https://www.visugpx.com">
  <metadata>
    <name>L'antre des druides - Fontainebleau</name>
  </metadata>
  <trk>
    <name><![CDATA[L'antre des druides - Fontainebleau]]></name>
    <trkseg>
      <trkpt lat="48.44058" lon="2.62438">
        <ele>95.416235</ele>
        <time>2021-01-10T15:03:14.099Z</time>
      </trkpt>
      <trkpt lat="48.4408" lon="2.62437">
        <ele>95.416235</ele>
        <time>2021-01-10T15:03:19.870Z</time>
      </trkpt>
      <trkpt lat="48.44086" lon="2.62437">
        <ele>95.416235</ele>
        <time>2021-01-10T15:03:21.409Z</time>
      </trkpt>
      <trkpt lat="48.44099" lon="2.6243">
        <ele>95.416235</ele>
        <time>2021-01-10T15:03:24.647Z</time>
      </trkpt>
      <trkpt lat="48.44094" lon="2.62462">
        <ele>95.416235</ele>
        <time>2021-01-10T15:03:33.724Z</time>
      </trkpt>
      <trkpt lat="48.44047" lon="2.62725">
        <ele>96.401474</ele>
        <time>2021-01-10T15:04:50.120Z</time>
      </trkpt>
      <trkpt lat="48.44058" lon="2.6287">
        <ele>97.76251</ele>
        <time>2021-01-10T15:05:30.593Z</time>
      </trkpt>
      <trkpt lat="48.44068" lon="2.63022">
        <ele>99.48101</ele>
        <time>2021-01-10T15:06:19.505Z</time>
      </trkpt>
      <trkpt lat="48.44049" lon="2.63114">
        <ele>101.260734</ele>
        <time>2021-01-10T15:07:01.847Z</time>
      </trkpt>
      <trkpt lat="48.43998" lon="2.63076">
        <ele>102.926351</ele>
        <time>2021-01-10T15:07:38.035Z</time>
      </trkpt>
      <trkpt lat="48.43985" lon="2.63054">
        <ele>103.521784</ele>
        <time>2021-01-10T15:07:49.779Z</time>
      </trkpt>
      <trkpt lat="48.4398" lon="2.6311">
        <ele>104.614929</ele>
        <time>2021-01-10T15:08:06.896Z</time>
      </trkpt>
      <trkpt lat="48.43944" lon="2.63129">
        <ele>104.379236</ele>
        <time>2021-01-10T15:08:22.260Z</time>
      </trkpt>
      <trkpt lat="48.4398" lon="2.6311">
        <ele>103.736579</ele>
        <time>2021-01-10T15:08:36.622Z</time>
      </trkpt>
      <trkpt lat="48.43985" lon="2.63054">
        <ele>103.114522</ele>
        <time>2021-01-10T15:08:49.588Z</time>
      </trkpt>
      <trkpt lat="48.43998" lon="2.63076">
        <ele>102.77569</ele>
        <time>2021-01-10T15:08:55.932Z</time>
      </trkpt>
      <trkpt lat="48.44049" lon="2.63114">
        <ele>101.797558</ele>
        <time>2021-01-10T15:09:12.976Z</time>
      </trkpt>
      <trkpt lat="48.4404" lon="2.63184">
        <ele>100.552521</ele>
        <time>2021-01-10T15:09:26.681Z</time>
      </trkpt>
      <trkpt lat="48.44027" lon="2.63284">
        <ele>98.757845</ele>
        <time>2021-01-10T15:09:47.926Z</time>
      </trkpt>
      <trkpt lat="48.44011" lon="2.63403">
        <ele>96.960259</ele>
        <time>2021-01-10T15:10:16.588Z</time>
      </trkpt>
      <trkpt lat="48.43972" lon="2.63755">
        <ele>95.462748</ele>
        <time>2021-01-10T15:11:41.284Z</time>
      </trkpt>
      <trkpt lat="48.43941" lon="2.63944">
        <ele>95.320303</ele>
        <time>2021-01-10T15:12:32.198Z</time>
      </trkpt>
      <trkpt lat="48.43898" lon="2.64193">
        <ele>95.616127</ele>
        <time>2021-01-10T15:13:40.740Z</time>
      </trkpt>
      <trkpt lat="48.43886" lon="2.64262">
        <ele>95.295202</ele>
        <time>2021-01-10T15:13:58.481Z</time>
      </trkpt>
      <trkpt lat="48.44367" lon="2.64318">
        <ele>92.578528</ele>
        <time>2021-01-10T15:16:50.029Z</time>
      </trkpt>
      <trkpt lat="48.44462" lon="2.64334">
        <ele>95.142575</ele>
        <time>2021-01-10T15:17:39.146Z</time>
      </trkpt>
      <trkpt lat="48.44538" lon="2.64357">
        <ele>97.213316</ele>
        <time>2021-01-10T15:18:27.191Z</time>
      </trkpt>
      <trkpt lat="48.44538" lon="2.6435">
        <ele>97.451805</ele>
        <time>2021-01-10T15:18:29.773Z</time>
      </trkpt>
      <trkpt lat="48.44538" lon="2.64357">
        <ele>97.721978</ele>
        <time>2021-01-10T15:18:33.889Z</time>
      </trkpt>
      <trkpt lat="48.44571" lon="2.64372">
        <ele>99.51377</ele>
        <time>2021-01-10T15:18:56.861Z</time>
      </trkpt>
      <trkpt lat="48.44598" lon="2.64361">
        <ele>100.960801</ele>
        <time>2021-01-10T15:19:16.553Z</time>
      </trkpt>
      <trkpt lat="48.4463" lon="2.64365">
        <ele>102.65959</ele>
        <time>2021-01-10T15:19:39.942Z</time>
      </trkpt>
      <trkpt lat="48.44652" lon="2.6438">
        <ele>103.900767</ele>
        <time>2021-01-10T15:19:56.425Z</time>
      </trkpt>
      <trkpt lat="48.44652" lon="2.64412">
        <ele>104.986589</ele>
        <time>2021-01-10T15:20:10.701Z</time>
      </trkpt>
      <trkpt lat="48.44643" lon="2.64438">
        <ele>106.026046</ele>
        <time>2021-01-10T15:20:25.979Z</time>
      </trkpt>
      <trkpt lat="48.44647" lon="2.64449">
        <ele>106.438758</ele>
        <time>2021-01-10T15:20:31.429Z</time>
      </trkpt>
      <trkpt lat="48.4466" lon="2.64461">
        <ele>107.290797</ele>
        <time>2021-01-10T15:20:42.514Z</time>
      </trkpt>
      <trkpt lat="48.44696" lon="2.64467">
        <ele>109.311692</ele>
        <time>2021-01-10T15:21:08.349Z</time>
      </trkpt>
      <trkpt lat="48.44728" lon="2.64496">
        <ele>111.424919</ele>
        <time>2021-01-10T15:21:36.051Z</time>
      </trkpt>
      <trkpt lat="48.44752" lon="2.64512">
        <ele>112.850797</ele>
        <time>2021-01-10T15:21:54.291Z</time>
      </trkpt>
      <trkpt lat="48.44765" lon="2.64521">
        <ele>113.683583</ele>
        <time>2021-01-10T15:22:05.671Z</time>
      </trkpt>
      <trkpt lat="48.44811" lon="2.64422">
        <ele>117.471714</ele>
        <time>2021-01-10T15:23:02.170Z</time>
      </trkpt>
      <trkpt lat="48.44812" lon="2.64371">
        <ele>118.442112</ele>
        <time>2021-01-10T15:23:25.553Z</time>
      </trkpt>
      <trkpt lat="48.44826" lon="2.64333">
        <ele>119.261214</ele>
        <time>2021-01-10T15:23:44.822Z</time>
      </trkpt>
      <trkpt lat="48.44825" lon="2.64305">
        <ele>119.806512</ele>
        <time>2021-01-10T15:23:55.785Z</time>
      </trkpt>
      <trkpt lat="48.44826" lon="2.64301">
        <ele>119.877614</ele>
        <time>2021-01-10T15:23:57.572Z</time>
      </trkpt>
      <trkpt lat="48.44839" lon="2.6425">
        <ele>120.918404</ele>
        <time>2021-01-10T15:24:14.262Z</time>
      </trkpt>
      <trkpt lat="48.4483" lon="2.64204">
        <ele>121.821574</ele>
        <time>2021-01-10T15:24:25.975Z</time>
      </trkpt>
      <trkpt lat="48.44844" lon="2.64162">
        <ele>121.124278</ele>
        <time>2021-01-10T15:24:37.062Z</time>
      </trkpt>
      <trkpt lat="48.44859" lon="2.64159">
        <ele>120.742531</ele>
        <time>2021-01-10T15:24:41.925Z</time>
      </trkpt>
      <trkpt lat="48.44875" lon="2.64101">
        <ele>119.684456</ele>
        <time>2021-01-10T15:24:54.405Z</time>
      </trkpt>
      <trkpt lat="48.44869" lon="2.64073">
        <ele>119.188698</ele>
        <time>2021-01-10T15:25:00.433Z</time>
      </trkpt>
      <trkpt lat="48.44874" lon="2.64047">
        <ele>118.739362</ele>
        <time>2021-01-10T15:25:05.784Z</time>
      </trkpt>
      <trkpt lat="48.44918" lon="2.63994">
        <ele>117.311195</ele>
        <time>2021-01-10T15:25:23.396Z</time>
      </trkpt>
      <trkpt lat="48.44923" lon="2.63988">
        <ele>117.193589</ele>
        <time>2021-01-10T15:25:25.568Z</time>
      </trkpt>
      <trkpt lat="48.44926" lon="2.63912">
        <ele>116.396621</ele>
        <time>2021-01-10T15:25:41.542Z</time>
      </trkpt>
      <trkpt lat="48.4495" lon="2.63909">
        <ele>116.007948</ele>
        <time>2021-01-10T15:25:49.991Z</time>
      </trkpt>
      <trkpt lat="48.45001" lon="2.63823">
        <ele>114.797746</ele>
        <time>2021-01-10T15:26:16.909Z</time>
      </trkpt>
      <trkpt lat="48.4502" lon="2.63785">
        <ele>114.166621</ele>
        <time>2021-01-10T15:26:28.991Z</time>
      </trkpt>
      <trkpt lat="48.45015" lon="2.63771">
        <ele>113.862029</ele>
        <time>2021-01-10T15:26:32.271Z</time>
      </trkpt>
      <trkpt lat="48.44995" lon="2.63724">
        <ele>112.81019</ele>
        <time>2021-01-10T15:26:47.048Z</time>
      </trkpt>
      <trkpt lat="48.45058" lon="2.63325">
        <ele>103.286006</ele>
        <time>2021-01-10T15:28:08.505Z</time>
      </trkpt>
      <trkpt lat="48.45039" lon="2.63007">
        <ele>95.465663</ele>
        <time>2021-01-10T15:29:12.555Z</time>
      </trkpt>
      <trkpt lat="48.45017" lon="2.62871">
        <ele>93.778641</ele>
        <time>2021-01-10T15:29:42.928Z</time>
      </trkpt>
      <trkpt lat="48.44961" lon="2.62828">
        <ele>92.637924</ele>
        <time>2021-01-10T15:30:04.585Z</time>
      </trkpt>
      <trkpt lat="48.44719" lon="2.62705">
        <ele>91.194982</ele>
        <time>2021-01-10T15:31:38.518Z</time>
      </trkpt>
      <trkpt lat="48.44535" lon="2.62599">
        <ele>90.57198</ele>
        <time>2021-01-10T15:32:50.879Z</time>
      </trkpt>
      <trkpt lat="48.44431" lon="2.62546">
        <ele>90.393391</ele>
        <time>2021-01-10T15:33:32.217Z</time>
      </trkpt>
      <trkpt lat="48.44348" lon="2.62493">
        <ele>91.246163</ele>
        <time>2021-01-10T15:34:09.469Z</time>
      </trkpt>
      <trkpt lat="48.44324" lon="2.62037">
        <ele>94.794439</ele>
        <time>2021-01-10T15:36:32.393Z</time>
      </trkpt>
      <trkpt lat="48.44314" lon="2.6179">
        <ele>95.563041</ele>
        <time>2021-01-10T15:37:37.939Z</time>
      </trkpt>
      <trkpt lat="48.44299" lon="2.61454">
        <ele>95.913014</ele>
        <time>2021-01-10T15:39:01.861Z</time>
      </trkpt>
      <trkpt lat="48.44291" lon="2.61282">
        <ele>96.813774</ele>
        <time>2021-01-10T15:39:52.823Z</time>
      </trkpt>
      <trkpt lat="48.44298" lon="2.61257">
        <ele>97.165259</ele>
        <time>2021-01-10T15:40:01.677Z</time>
      </trkpt>
      <trkpt lat="48.44289" lon="2.61226">
        <ele>97.711908</ele>
        <time>2021-01-10T15:40:13.786Z</time>
      </trkpt>
      <trkpt lat="48.44226" lon="2.61223">
        <ele>99.258779</ele>
        <time>2021-01-10T15:40:48.993Z</time>
      </trkpt>
      <trkpt lat="48.44168" lon="2.61213">
        <ele>100.67412</ele>
        <time>2021-01-10T15:41:20.852Z</time>
      </trkpt>
      <trkpt lat="48.44121" lon="2.61211">
        <ele>101.33857</ele>
        <time>2021-01-10T15:41:46.465Z</time>
      </trkpt>
      <trkpt lat="48.44063" lon="2.61142">
        <ele>101.66962</ele>
        <time>2021-01-10T15:42:19.501Z</time>
      </trkpt>
      <trkpt lat="48.44017" lon="2.61068">
        <ele>101.972583</ele>
        <time>2021-01-10T15:42:43.893Z</time>
      </trkpt>
      <trkpt lat="48.4394" lon="2.61024">
        <ele>100.848646</ele>
        <time>2021-01-10T15:43:11.134Z</time>
      </trkpt>
      <trkpt lat="48.43935" lon="2.60962">
        <ele>100.126099</ele>
        <time>2021-01-10T15:43:24.906Z</time>
      </trkpt>
      <trkpt lat="48.43929" lon="2.6088">
        <ele>99.163333</ele>
        <time>2021-01-10T15:43:42.922Z</time>
      </trkpt>
      <trkpt lat="48.43886" lon="2.60831">
        <ele>98.411</ele>
        <time>2021-01-10T15:44:01.228Z</time>
      </trkpt>
      <trkpt lat="48.4386" lon="2.60787">
        <ele>97.920768</ele>
        <time>2021-01-10T15:44:14.713Z</time>
      </trkpt>
      <trkpt lat="48.43859" lon="2.60783">
        <ele>97.890781</ele>
        <time>2021-01-10T15:44:15.441Z</time>
      </trkpt>
      <trkpt lat="48.43854" lon="2.60753">
        <ele>97.632928</ele>
        <time>2021-01-10T15:44:22.560Z</time>
      </trkpt>
      <trkpt lat="48.43845" lon="2.60713">
        <ele>97.283743</ele>
        <time>2021-01-10T15:44:32.283Z</time>
      </trkpt>
      <trkpt lat="48.43851" lon="2.60677">
        <ele>96.971597</ele>
        <time>2021-01-10T15:44:41.159Z</time>
      </trkpt>
      <trkpt lat="48.43871" lon="2.6064">
        <ele>96.629057</ele>
        <time>2021-01-10T15:44:52.547Z</time>
      </trkpt>
      <trkpt lat="48.43877" lon="2.60612">
        <ele>96.602557</ele>
        <time>2021-01-10T15:44:59.182Z</time>
      </trkpt>
      <trkpt lat="48.43877" lon="2.60612">
        <ele>96.602421</ele>
        <time>2021-01-10T15:44:59.192Z</time>
      </trkpt>
      <trkpt lat="48.43892" lon="2.60612">
        <ele>96.582782</ele>
        <time>2021-01-10T15:45:04.469Z</time>
      </trkpt>
      <trkpt lat="48.43891" lon="2.60602">
        <ele>96.574147</ele>
        <time>2021-01-10T15:45:06.545Z</time>
      </trkpt>
      <trkpt lat="48.43895" lon="2.60366">
        <ele>96.693457</ele>
        <time>2021-01-10T15:46:07.285Z</time>
      </trkpt>
      <trkpt lat="48.43889" lon="2.60239">
        <ele>97.84841</ele>
        <time>2021-01-10T15:46:47.412Z</time>
      </trkpt>
      <trkpt lat="48.43872" lon="2.60118">
        <ele>98.921636</ele>
        <time>2021-01-10T15:47:28.050Z</time>
      </trkpt>
      <trkpt lat="48.43879" lon="2.60009">
        <ele>99.433359</ele>
        <time>2021-01-10T15:48:01.726Z</time>
      </trkpt>
      <trkpt lat="48.43873" lon="2.59954">
        <ele>99.696174</ele>
        <time>2021-01-10T15:48:17.752Z</time>
      </trkpt>
      <trkpt lat="48.43746" lon="2.59764">
        <ele>99.152763</ele>
        <time>2021-01-10T15:49:23.589Z</time>
      </trkpt>
      <trkpt lat="48.43691" lon="2.59778">
        <ele>98.686827</ele>
        <time>2021-01-10T15:49:42.328Z</time>
      </trkpt>
      <trkpt lat="48.43643" lon="2.59779">
        <ele>97.882347</ele>
        <time>2021-01-10T15:49:58.644Z</time>
      </trkpt>
      <trkpt lat="48.43604" lon="2.59786">
        <ele>97.177933</ele>
        <time>2021-01-10T15:50:11.648Z</time>
      </trkpt>
      <trkpt lat="48.43587" lon="2.59789">
        <ele>96.865441</ele>
        <time>2021-01-10T15:50:17.360Z</time>
      </trkpt>
      <trkpt lat="48.43408" lon="2.59819">
        <ele>94.162842</ele>
        <time>2021-01-10T15:51:17.007Z</time>
      </trkpt>
      <trkpt lat="48.43352" lon="2.59828">
        <ele>93.449364</ele>
        <time>2021-01-10T15:51:37.132Z</time>
      </trkpt>
      <trkpt lat="48.43332" lon="2.59832">
        <ele>93.196402</ele>
        <time>2021-01-10T15:51:44.457Z</time>
      </trkpt>
      <trkpt lat="48.43265" lon="2.59848">
        <ele>93.3865</ele>
        <time>2021-01-10T15:52:09.917Z</time>
      </trkpt>
      <trkpt lat="48.43117" lon="2.59875">
        <ele>94.083911</ele>
        <time>2021-01-10T15:53:14.007Z</time>
      </trkpt>
      <trkpt lat="48.43063" lon="2.59884">
        <ele>94.441483</ele>
        <time>2021-01-10T15:53:38.051Z</time>
      </trkpt>
      <trkpt lat="48.42958" lon="2.59906">
        <ele>94.967028</ele>
        <time>2021-01-10T15:54:22.039Z</time>
      </trkpt>
      <trkpt lat="48.42925" lon="2.59912">
        <ele>94.697517</ele>
        <time>2021-01-10T15:54:34.420Z</time>
      </trkpt>
      <trkpt lat="48.4288" lon="2.5992">
        <ele>94.328543</ele>
        <time>2021-01-10T15:54:50.745Z</time>
      </trkpt>
      <trkpt lat="48.42875" lon="2.59921">
        <ele>94.285828</ele>
        <time>2021-01-10T15:54:52.456Z</time>
      </trkpt>
      <trkpt lat="48.42783" lon="2.59897">
        <ele>93.483071</ele>
        <time>2021-01-10T15:55:24.329Z</time>
      </trkpt>
      <trkpt lat="48.42626" lon="2.59842">
        <ele>91.429531</ele>
        <time>2021-01-10T15:56:18.897Z</time>
      </trkpt>
      <trkpt lat="48.42284" lon="2.59702">
        <ele>91.165674</ele>
        <time>2021-01-10T15:58:36.476Z</time>
      </trkpt>
      <trkpt lat="48.42255" lon="2.59684">
        <ele>91.003525</ele>
        <time>2021-01-10T15:58:47.969Z</time>
      </trkpt>
      <trkpt lat="48.41983" lon="2.59581">
        <ele>87.931842</ele>
        <time>2021-01-10T16:00:25.612Z</time>
      </trkpt>
      <trkpt lat="48.41972" lon="2.59566">
        <ele>87.735992</ele>
        <time>2021-01-10T16:00:30.666Z</time>
      </trkpt>
      <trkpt lat="48.41777" lon="2.59491">
        <ele>84.746942</ele>
        <time>2021-01-10T16:01:38.577Z</time>
      </trkpt>
      <trkpt lat="48.41738" lon="2.5948">
        <ele>84.173</ele>
        <time>2021-01-10T16:01:51.896Z</time>
      </trkpt>
      <trkpt lat="48.41585" lon="2.59422">
        <ele>82.169121</ele>
        <time>2021-01-10T16:02:46.183Z</time>
      </trkpt>
      <trkpt lat="48.4155" lon="2.59416">
        <ele>81.999535</ele>
        <time>2021-01-10T16:02:58.754Z</time>
      </trkpt>
      <trkpt lat="48.41541" lon="2.59402">
        <ele>81.97386</ele>
        <time>2021-01-10T16:03:03.304Z</time>
      </trkpt>
      <trkpt lat="48.41541" lon="2.59398">
        <ele>81.969081</ele>
        <time>2021-01-10T16:03:04.108Z</time>
      </trkpt>
      <trkpt lat="48.41523" lon="2.59398">
        <ele>81.932557</ele>
        <time>2021-01-10T16:03:10.563Z</time>
      </trkpt>
      <trkpt lat="48.41388" lon="2.5935">
        <ele>81.858745</ele>
        <time>2021-01-10T16:04:03.804Z</time>
      </trkpt>
      <trkpt lat="48.41359" lon="2.59338">
        <ele>82.147465</ele>
        <time>2021-01-10T16:04:16.919Z</time>
      </trkpt>
      <trkpt lat="48.41278" lon="2.59304">
        <ele>82.959329</ele>
        <time>2021-01-10T16:04:53.780Z</time>
      </trkpt>
      <trkpt lat="48.41271" lon="2.59301">
        <ele>83.024503</ele>
        <time>2021-01-10T16:04:57.472Z</time>
      </trkpt>
      <trkpt lat="48.41106" lon="2.59226">
        <ele>85.389441</ele>
        <time>2021-01-10T16:06:19.062Z</time>
      </trkpt>
      <trkpt lat="48.41015" lon="2.59193">
        <ele>86.835205</ele>
        <time>2021-01-10T16:07:03.042Z</time>
      </trkpt>
      <trkpt lat="48.40984" lon="2.59189">
        <ele>87.33315</ele>
        <time>2021-01-10T16:07:17.375Z</time>
      </trkpt>
      <trkpt lat="48.40971" lon="2.59413">
        <ele>91.036456</ele>
        <time>2021-01-10T16:08:28.643Z</time>
      </trkpt>
      <trkpt lat="48.40965" lon="2.59486">
        <ele>93.223413</ele>
        <time>2021-01-10T16:08:59.039Z</time>
      </trkpt>
      <trkpt lat="48.40959" lon="2.59567">
        <ele>95.624906</ele>
        <time>2021-01-10T16:09:36.708Z</time>
      </trkpt>
      <trkpt lat="48.40918" lon="2.59549">
        <ele>97.926979</ele>
        <time>2021-01-10T16:10:11.671Z</time>
      </trkpt>
      <trkpt lat="48.40856" lon="2.59503">
        <ele>103.327616</ele>
        <time>2021-01-10T16:11:12.561Z</time>
      </trkpt>
      <trkpt lat="48.40839" lon="2.59477">
        <ele>105.227643</ele>
        <time>2021-01-10T16:11:35.293Z</time>
      </trkpt>
      <trkpt lat="48.40817" lon="2.59462">
        <ele>107.105853</ele>
        <time>2021-01-10T16:11:57.394Z</time>
      </trkpt>
      <trkpt lat="48.40813" lon="2.59459">
        <ele>107.47777</ele>
        <time>2021-01-10T16:12:02.482Z</time>
      </trkpt>
      <trkpt lat="48.40806" lon="2.59444">
        <ele>108.419702</ele>
        <time>2021-01-10T16:12:13.313Z</time>
      </trkpt>
      <trkpt lat="48.40784" lon="2.59437">
        <ele>110.169088</ele>
        <time>2021-01-10T16:12:31.885Z</time>
      </trkpt>
      <trkpt lat="48.40766" lon="2.59441">
        <ele>111.361718</ele>
        <time>2021-01-10T16:12:45.569Z</time>
      </trkpt>
      <trkpt lat="48.4076" lon="2.59421">
        <ele>112.005255</ele>
        <time>2021-01-10T16:12:56.447Z</time>
      </trkpt>
      <trkpt lat="48.40761" lon="2.59405">
        <ele>112.448391</ele>
        <time>2021-01-10T16:13:04.342Z</time>
      </trkpt>
      <trkpt lat="48.4075" lon="2.59379">
        <ele>113.303888</ele>
        <time>2021-01-10T16:13:17.914Z</time>
      </trkpt>
      <trkpt lat="48.40731" lon="2.59357">
        <ele>114.334766</ele>
        <time>2021-01-10T16:13:34.062Z</time>
      </trkpt>
      <trkpt lat="48.40699" lon="2.59375">
        <ele>115.796679</ele>
        <time>2021-01-10T16:13:55.431Z</time>
      </trkpt>
      <trkpt lat="48.40683" lon="2.59372">
        <ele>116.483088</ele>
        <time>2021-01-10T16:14:04.985Z</time>
      </trkpt>
      <trkpt lat="48.40647" lon="2.59338">
        <ele>118.291741</ele>
        <time>2021-01-10T16:14:27.921Z</time>
      </trkpt>
      <trkpt lat="48.40634" lon="2.59335">
        <ele>118.79683</ele>
        <time>2021-01-10T16:14:34.098Z</time>
      </trkpt>
      <trkpt lat="48.40636" lon="2.59367">
        <ele>119.237885</ele>
        <time>2021-01-10T16:14:45.041Z</time>
      </trkpt>
      <trkpt lat="48.40651" lon="2.59426">
        <ele>120.125173</ele>
        <time>2021-01-10T16:15:05.736Z</time>
      </trkpt>
      <trkpt lat="48.40681" lon="2.59459">
        <ele>120.895298</ele>
        <time>2021-01-10T16:15:23.714Z</time>
      </trkpt>
      <trkpt lat="48.40692" lon="2.59491">
        <ele>121.394061</ele>
        <time>2021-01-10T16:15:35.582Z</time>
      </trkpt>
      <trkpt lat="48.40689" lon="2.59527">
        <ele>121.901621</ele>
        <time>2021-01-10T16:15:47.390Z</time>
      </trkpt>
      <trkpt lat="48.40665" lon="2.59573">
        <ele>122.749547</ele>
        <time>2021-01-10T16:16:08.036Z</time>
      </trkpt>
      <trkpt lat="48.40648" lon="2.5959">
        <ele>123.23085</ele>
        <time>2021-01-10T16:16:18.867Z</time>
      </trkpt>
      <trkpt lat="48.40641" lon="2.59618">
        <ele>123.713124</ele>
        <time>2021-01-10T16:16:29.722Z</time>
      </trkpt>
      <trkpt lat="48.4063" lon="2.59664">
        <ele>124.491889</ele>
        <time>2021-01-10T16:16:47.584Z</time>
      </trkpt>
      <trkpt lat="48.40635" lon="2.59695">
        <ele>124.998804</ele>
        <time>2021-01-10T16:16:59.196Z</time>
      </trkpt>
      <trkpt lat="48.4065" lon="2.59716">
        <ele>125.498499</ele>
        <time>2021-01-10T16:17:09.951Z</time>
      </trkpt>
      <trkpt lat="48.40656" lon="2.59718">
        <ele>125.641308</ele>
        <time>2021-01-10T16:17:13.410Z</time>
      </trkpt>
      <trkpt lat="48.40598" lon="2.59808">
        <ele>127.20631</ele>
        <time>2021-01-10T16:17:55.404Z</time>
      </trkpt>
      <trkpt lat="48.40572" lon="2.5985">
        <ele>127.627099</ele>
        <time>2021-01-10T16:18:13.441Z</time>
      </trkpt>
      <trkpt lat="48.40517" lon="2.59935">
        <ele>128.480269</ele>
        <time>2021-01-10T16:18:47.341Z</time>
      </trkpt>
      <trkpt lat="48.40493" lon="2.59938">
        <ele>128.744902</ele>
        <time>2021-01-10T16:18:56.901Z</time>
      </trkpt>
      <trkpt lat="48.40462" lon="2.59961">
        <ele>128.907582</ele>
        <time>2021-01-10T16:19:10.266Z</time>
      </trkpt>
      <trkpt lat="48.40438" lon="2.59959">
        <ele>128.983715</ele>
        <time>2021-01-10T16:19:19.262Z</time>
      </trkpt>
      <trkpt lat="48.40422" lon="2.5995">
        <ele>129.038037</ele>
        <time>2021-01-10T16:19:25.915Z</time>
      </trkpt>
      <trkpt lat="48.4039" lon="2.59968">
        <ele>129.150203</ele>
        <time>2021-01-10T16:19:39.473Z</time>
      </trkpt>
      <trkpt lat="48.40371" lon="2.59965">
        <ele>129.210743</ele>
        <time>2021-01-10T16:19:46.711Z</time>
      </trkpt>
      <trkpt lat="48.40347" lon="2.5996">
        <ele>129.288093</ele>
        <time>2021-01-10T16:19:56.592Z</time>
      </trkpt>
      <trkpt lat="48.40327" lon="2.59959">
        <ele>129.351912</ele>
        <time>2021-01-10T16:20:05.382Z</time>
      </trkpt>
      <trkpt lat="48.40302" lon="2.59972">
        <ele>129.405635</ele>
        <time>2021-01-10T16:20:16.751Z</time>
      </trkpt>
      <trkpt lat="48.40259" lon="2.6005">
        <ele>129.470733</ele>
        <time>2021-01-10T16:20:45.057Z</time>
      </trkpt>
      <trkpt lat="48.40248" lon="2.60058">
        <ele>129.482511</ele>
        <time>2021-01-10T16:20:49.565Z</time>
      </trkpt>
      <trkpt lat="48.40232" lon="2.60054">
        <ele>129.498334</ele>
        <time>2021-01-10T16:20:56.347Z</time>
      </trkpt>
      <trkpt lat="48.40224" lon="2.60055">
        <ele>129.505596</ele>
        <time>2021-01-10T16:21:00.174Z</time>
      </trkpt>
      <trkpt lat="48.40202" lon="2.60058">
        <ele>129.52777</ele>
        <time>2021-01-10T16:21:08.823Z</time>
      </trkpt>
      <trkpt lat="48.40193" lon="2.60054">
        <ele>129.536588</ele>
        <time>2021-01-10T16:21:12.779Z</time>
      </trkpt>
      <trkpt lat="48.40184" lon="2.60033">
        <ele>129.552496</ele>
        <time>2021-01-10T16:21:18.390Z</time>
      </trkpt>
      <trkpt lat="48.4015" lon="2.59857">
        <ele>127.598867</ele>
        <time>2021-01-10T16:21:59.984Z</time>
      </trkpt>
      <trkpt lat="48.40143" lon="2.59841">
        <ele>127.365427</ele>
        <time>2021-01-10T16:22:03.986Z</time>
      </trkpt>
      <trkpt lat="48.40141" lon="2.59835">
        <ele>127.280163</ele>
        <time>2021-01-10T16:22:05.288Z</time>
      </trkpt>
      <trkpt lat="48.40089" lon="2.59819">
        <ele>126.315096</ele>
        <time>2021-01-10T16:22:22.273Z</time>
      </trkpt>
      <trkpt lat="48.40052" lon="2.59821">
        <ele>125.474962</ele>
        <time>2021-01-10T16:22:34.215Z</time>
      </trkpt>
      <trkpt lat="48.40046" lon="2.59797">
        <ele>125.090168</ele>
        <time>2021-01-10T16:22:39.418Z</time>
      </trkpt>
      <trkpt lat="48.40024" lon="2.59681">
        <ele>123.26335</ele>
        <time>2021-01-10T16:23:05.516Z</time>
      </trkpt>
      <trkpt lat="48.40018" lon="2.59552">
        <ele>121.70656</ele>
        <time>2021-01-10T16:23:33.948Z</time>
      </trkpt>
      <trkpt lat="48.40038" lon="2.5947">
        <ele>120.988226</ele>
        <time>2021-01-10T16:23:54.123Z</time>
      </trkpt>
      <trkpt lat="48.40027" lon="2.59474">
        <ele>120.850714</ele>
        <time>2021-01-10T16:23:57.849Z</time>
      </trkpt>
      <trkpt lat="48.39975" lon="2.59493">
        <ele>120.190795</ele>
        <time>2021-01-10T16:24:16.722Z</time>
      </trkpt>
      <trkpt lat="48.3993" lon="2.59496">
        <ele>119.865942</ele>
        <time>2021-01-10T16:24:32.943Z</time>
      </trkpt>
      <trkpt lat="48.39893" lon="2.59465">
        <ele>119.734754</ele>
        <time>2021-01-10T16:24:48.332Z</time>
      </trkpt>
      <trkpt lat="48.39886" lon="2.59473">
        <ele>119.706918</ele>
        <time>2021-01-10T16:24:51.748Z</time>
      </trkpt>
      <trkpt lat="48.39892" lon="2.59707">
        <ele>119.275323</ele>
        <time>2021-01-10T16:25:51.253Z</time>
      </trkpt>
      <trkpt lat="48.39907" lon="2.59844">
        <ele>119.074015</ele>
        <time>2021-01-10T16:26:25.679Z</time>
      </trkpt>
      <trkpt lat="48.39898" lon="2.59877">
        <ele>119.021822</ele>
        <time>2021-01-10T16:26:34.433Z</time>
      </trkpt>
      <trkpt lat="48.39834" lon="2.60007">
        <ele>118.893759</ele>
        <time>2021-01-10T16:27:13.559Z</time>
      </trkpt>
      <trkpt lat="48.39796" lon="2.60185">
        <ele>119.259754</ele>
        <time>2021-01-10T16:28:03.393Z</time>
      </trkpt>
      <trkpt lat="48.39795" lon="2.60215">
        <ele>119.486369</ele>
        <time>2021-01-10T16:28:11.828Z</time>
      </trkpt>
      <trkpt lat="48.39796" lon="2.60231">
        <ele>119.600338</ele>
        <time>2021-01-10T16:28:16.346Z</time>
      </trkpt>
      <trkpt lat="48.39794" lon="2.6024">
        <ele>119.674416</ele>
        <time>2021-01-10T16:28:19.854Z</time>
      </trkpt>
      <trkpt lat="48.39763" lon="2.60356">
        <ele>120.590857</ele>
        <time>2021-01-10T16:28:58.006Z</time>
      </trkpt>
      <trkpt lat="48.39708" lon="2.60438">
        <ele>121.715008</ele>
        <time>2021-01-10T16:29:36.290Z</time>
      </trkpt>
      <trkpt lat="48.39693" lon="2.6048">
        <ele>122.196068</ele>
        <time>2021-01-10T16:29:50.993Z</time>
      </trkpt>
      <trkpt lat="48.39683" lon="2.60528">
        <ele>122.719213</ele>
        <time>2021-01-10T16:30:06.972Z</time>
      </trkpt>
      <trkpt lat="48.3968" lon="2.60674">
        <ele>124.101177</ele>
        <time>2021-01-10T16:30:52.378Z</time>
      </trkpt>
      <trkpt lat="48.39696" lon="2.60762">
        <ele>124.853226</ele>
        <time>2021-01-10T16:31:19.909Z</time>
      </trkpt>
      <trkpt lat="48.39697" lon="2.60803">
        <ele>125.196334</ele>
        <time>2021-01-10T16:31:32.388Z</time>
      </trkpt>
      <trkpt lat="48.39673" lon="2.60955">
        <ele>126.386965</ele>
        <time>2021-01-10T16:32:19.732Z</time>
      </trkpt>
      <trkpt lat="48.39641" lon="2.61013">
        <ele>126.902707</ele>
        <time>2021-01-10T16:32:41.903Z</time>
      </trkpt>
      <trkpt lat="48.39602" lon="2.61062">
        <ele>127.433987</ele>
        <time>2021-01-10T16:33:04.367Z</time>
      </trkpt>
      <trkpt lat="48.39589" lon="2.61108">
        <ele>127.752086</ele>
        <time>2021-01-10T16:33:18.723Z</time>
      </trkpt>
      <trkpt lat="48.39587" lon="2.61159">
        <ele>127.971074</ele>
        <time>2021-01-10T16:33:33.281Z</time>
      </trkpt>
      <trkpt lat="48.39561" lon="2.61328">
        <ele>128.717783</ele>
        <time>2021-01-10T16:34:21.452Z</time>
      </trkpt>
      <trkpt lat="48.39535" lon="2.61658">
        <ele>129.787016</ele>
        <time>2021-01-10T16:35:51.365Z</time>
      </trkpt>
      <trkpt lat="48.3953" lon="2.61668">
        <ele>129.850367</ele>
        <time>2021-01-10T16:35:54.711Z</time>
      </trkpt>
      <trkpt lat="48.39521" lon="2.61681">
        <ele>129.943337</ele>
        <time>2021-01-10T16:36:00.099Z</time>
      </trkpt>
      <trkpt lat="48.395" lon="2.61813">
        <ele>130.616107</ele>
        <time>2021-01-10T16:36:38.408Z</time>
      </trkpt>
      <trkpt lat="48.395" lon="2.61913">
        <ele>131.15494</ele>
        <time>2021-01-10T16:37:07.873Z</time>
      </trkpt>
      <trkpt lat="48.39494" lon="2.61995">
        <ele>131.7073</ele>
        <time>2021-01-10T16:37:32.383Z</time>
      </trkpt>
      <trkpt lat="48.39475" lon="2.6207">
        <ele>132.246868</ele>
        <time>2021-01-10T16:37:56.103Z</time>
      </trkpt>
      <trkpt lat="48.39478" lon="2.6209">
        <ele>132.38787</ele>
        <time>2021-01-10T16:38:02.426Z</time>
      </trkpt>
      <trkpt lat="48.39509" lon="2.62124">
        <ele>132.774789</ele>
        <time>2021-01-10T16:38:19.204Z</time>
      </trkpt>
      <trkpt lat="48.39529" lon="2.62147">
        <ele>132.915262</ele>
        <time>2021-01-10T16:38:29.742Z</time>
      </trkpt>
      <trkpt lat="48.39537" lon="2.62157">
        <ele>132.95871</ele>
        <time>2021-01-10T16:38:34.423Z</time>
      </trkpt>
      <trkpt lat="48.39467" lon="2.62553">
        <ele>133.735472</ele>
        <time>2021-01-10T16:40:22.904Z</time>
      </trkpt>
      <trkpt lat="48.39395" lon="2.62968">
        <ele>133.871273</ele>
        <time>2021-01-10T16:42:10.437Z</time>
      </trkpt>
      <trkpt lat="48.39434" lon="2.63139">
        <ele>134.529377</ele>
        <time>2021-01-10T16:43:02.582Z</time>
      </trkpt>
      <trkpt lat="48.39487" lon="2.6337">
        <ele>135.257255</ele>
        <time>2021-01-10T16:44:12.258Z</time>
      </trkpt>
      <trkpt lat="48.39523" lon="2.63519">
        <ele>133.730807</ele>
        <time>2021-01-10T16:44:50.179Z</time>
      </trkpt>
      <trkpt lat="48.39681" lon="2.63547">
        <ele>128.537053</ele>
        <time>2021-01-10T16:45:39.080Z</time>
      </trkpt>
      <trkpt lat="48.39686" lon="2.63603">
        <ele>126.534995</ele>
        <time>2021-01-10T16:45:49.528Z</time>
      </trkpt>
      <trkpt lat="48.39716" lon="2.63639">
        <ele>124.47752</ele>
        <time>2021-01-10T16:45:59.962Z</time>
      </trkpt>
      <trkpt lat="48.39716" lon="2.63639">
        <ele>124.47752</ele>
        <time>2021-01-10T16:45:59.999Z</time>
      </trkpt>
      <trkpt lat="48.39766" lon="2.63658">
        <ele>121.802945</ele>
        <time>2021-01-10T16:46:14.417Z</time>
      </trkpt>
      <trkpt lat="48.39829" lon="2.63767">
        <ele>120.353697</ele>
        <time>2021-01-10T16:46:43.771Z</time>
      </trkpt>
      <trkpt lat="48.3985" lon="2.63742">
        <ele>119.957257</ele>
        <time>2021-01-10T16:46:53.651Z</time>
      </trkpt>
      <trkpt lat="48.39876" lon="2.63699">
        <ele>119.376301</ele>
        <time>2021-01-10T16:47:09.756Z</time>
      </trkpt>
      <trkpt lat="48.39933" lon="2.63689">
        <ele>121.268108</ele>
        <time>2021-01-10T16:47:43.836Z</time>
      </trkpt>
      <trkpt lat="48.39953" lon="2.6365">
        <ele>123.05372</ele>
        <time>2021-01-10T16:48:09.086Z</time>
      </trkpt>
      <trkpt lat="48.39983" lon="2.63621">
        <ele>124.949522</ele>
        <time>2021-01-10T16:48:37.684Z</time>
      </trkpt>
      <trkpt lat="48.40022" lon="2.63596">
        <ele>127.287727</ele>
        <time>2021-01-10T16:49:10.854Z</time>
      </trkpt>
      <trkpt lat="48.40057" lon="2.63582">
        <ele>129.151658</ele>
        <time>2021-01-10T16:49:37.661Z</time>
      </trkpt>
      <trkpt lat="48.40074" lon="2.63532">
        <ele>130.736783</ele>
        <time>2021-01-10T16:50:04.015Z</time>
      </trkpt>
      <trkpt lat="48.40097" lon="2.63454">
        <ele>133.170843</ele>
        <time>2021-01-10T16:50:41.748Z</time>
      </trkpt>
      <trkpt lat="48.40139" lon="2.6348">
        <ele>135.144782</ele>
        <time>2021-01-10T16:51:10.733Z</time>
      </trkpt>
      <trkpt lat="48.40247" lon="2.63544">
        <ele>137.528236</ele>
        <time>2021-01-10T16:52:08.757Z</time>
      </trkpt>
      <trkpt lat="48.40273" lon="2.63535">
        <ele>137.829207</ele>
        <time>2021-01-10T16:52:20.371Z</time>
      </trkpt>
      <trkpt lat="48.40413" lon="2.63816">
        <ele>138.460767</ele>
        <time>2021-01-10T16:53:49.349Z</time>
      </trkpt>
      <trkpt lat="48.40402" lon="2.63828">
        <ele>138.444997</ele>
        <time>2021-01-10T16:53:54.284Z</time>
      </trkpt>
      <trkpt lat="48.40413" lon="2.63816">
        <ele>138.376941</ele>
        <time>2021-01-10T16:53:58.969Z</time>
      </trkpt>
      <trkpt lat="48.40437" lon="2.63632">
        <ele>137.487071</ele>
        <time>2021-01-10T16:54:44.099Z</time>
      </trkpt>
      <trkpt lat="48.40457" lon="2.63493">
        <ele>136.563996</ele>
        <time>2021-01-10T16:55:17.107Z</time>
      </trkpt>
      <trkpt lat="48.40461" lon="2.63461">
        <ele>136.293706</ele>
        <time>2021-01-10T16:55:24.404Z</time>
      </trkpt>
      <trkpt lat="48.40478" lon="2.63331">
        <ele>135.209897</ele>
        <time>2021-01-10T16:55:54.870Z</time>
      </trkpt>
      <trkpt lat="48.40479" lon="2.63322">
        <ele>135.138809</ele>
        <time>2021-01-10T16:55:56.705Z</time>
      </trkpt>
      <trkpt lat="48.40493" lon="2.63225">
        <ele>134.40621</ele>
        <time>2021-01-10T16:56:19.802Z</time>
      </trkpt>
      <trkpt lat="48.40495" lon="2.63192">
        <ele>134.16304</ele>
        <time>2021-01-10T16:56:27.807Z</time>
      </trkpt>
      <trkpt lat="48.40497" lon="2.63137">
        <ele>133.77294</ele>
        <time>2021-01-10T16:56:40.638Z</time>
      </trkpt>
      <trkpt lat="48.40507" lon="2.63037">
        <ele>133.053972</ele>
        <time>2021-01-10T16:57:04.126Z</time>
      </trkpt>
      <trkpt lat="48.40506" lon="2.62945">
        <ele>132.093904</ele>
        <time>2021-01-10T16:57:25.614Z</time>
      </trkpt>
      <trkpt lat="48.40516" lon="2.62777">
        <ele>130.295057</ele>
        <time>2021-01-10T16:58:02.835Z</time>
      </trkpt>
      <trkpt lat="48.40544" lon="2.62587">
        <ele>128.639956</ele>
        <time>2021-01-10T16:58:46.000Z</time>
      </trkpt>
      <trkpt lat="48.4055" lon="2.62539">
        <ele>128.231821</ele>
        <time>2021-01-10T16:58:57.579Z</time>
      </trkpt>
      <trkpt lat="48.40587" lon="2.62313">
        <ele>127.528591</ele>
        <time>2021-01-10T16:59:56.150Z</time>
      </trkpt>
      <trkpt lat="48.40592" lon="2.62221">
        <ele>127.321129</ele>
        <time>2021-01-10T17:00:18.958Z</time>
      </trkpt>
      <trkpt lat="48.40594" lon="2.62203">
        <ele>127.197229</ele>
        <time>2021-01-10T17:00:23.354Z</time>
      </trkpt>
      <trkpt lat="48.40609" lon="2.62106">
        <ele>126.545479</ele>
        <time>2021-01-10T17:00:46.975Z</time>
      </trkpt>
      <trkpt lat="48.40686" lon="2.62095">
        <ele>125.780952</ele>
        <time>2021-01-10T17:01:13.789Z</time>
      </trkpt>
      <trkpt lat="48.40659" lon="2.62197">
        <ele>124.913389</ele>
        <time>2021-01-10T17:01:38.599Z</time>
      </trkpt>
      <trkpt lat="48.40655" lon="2.62225">
        <ele>124.67179</ele>
        <time>2021-01-10T17:01:45.044Z</time>
      </trkpt>
      <trkpt lat="48.40643" lon="2.62309">
        <ele>123.960024</ele>
        <time>2021-01-10T17:02:04.313Z</time>
      </trkpt>
      <trkpt lat="48.40614" lon="2.62432">
        <ele>123.510955</ele>
        <time>2021-01-10T17:02:35.281Z</time>
      </trkpt>
      <trkpt lat="48.40611" lon="2.62502">
        <ele>123.720095</ele>
        <time>2021-01-10T17:02:52.984Z</time>
      </trkpt>
      <trkpt lat="48.40617" lon="2.62558">
        <ele>123.8889</ele>
        <time>2021-01-10T17:03:08.544Z</time>
      </trkpt>
      <trkpt lat="48.40588" lon="2.62625">
        <ele>124.131595</ele>
        <time>2021-01-10T17:03:33.704Z</time>
      </trkpt>
      <trkpt lat="48.40577" lon="2.62716">
        <ele>125.608283</ele>
        <time>2021-01-10T17:04:04.551Z</time>
      </trkpt>
      <trkpt lat="48.40585" lon="2.62822">
        <ele>127.439547</ele>
        <time>2021-01-10T17:04:45.347Z</time>
      </trkpt>
      <trkpt lat="48.40619" lon="2.62919">
        <ele>129.184697</ele>
        <time>2021-01-10T17:05:25.837Z</time>
      </trkpt>
      <trkpt lat="48.40623" lon="2.62981">
        <ele>129.987472</ele>
        <time>2021-01-10T17:05:47.270Z</time>
      </trkpt>
      <trkpt lat="48.40673" lon="2.63006">
        <ele>131.004764</ele>
        <time>2021-01-10T17:06:13.143Z</time>
      </trkpt>
      <trkpt lat="48.40673" lon="2.63006">
        <ele>131.004764</ele>
        <time>2021-01-10T17:06:13.266Z</time>
      </trkpt>
      <trkpt lat="48.40686" lon="2.63069">
        <ele>131.846976</ele>
        <time>2021-01-10T17:06:33.960Z</time>
      </trkpt>
      <trkpt lat="48.40653" lon="2.6308">
        <ele>132.365312</ele>
        <time>2021-01-10T17:06:49.575Z</time>
      </trkpt>
      <trkpt lat="48.40712" lon="2.63148">
        <ele>133.033841</ele>
        <time>2021-01-10T17:07:22.006Z</time>
      </trkpt>
      <trkpt lat="48.40766" lon="2.63151">
        <ele>133.521187</ele>
        <time>2021-01-10T17:07:44.683Z</time>
      </trkpt>
      <trkpt lat="48.40862" lon="2.63201">
        <ele>134.43201</ele>
        <time>2021-01-10T17:08:29.159Z</time>
      </trkpt>
      <trkpt lat="48.40855" lon="2.63227">
        <ele>134.600768</ele>
        <time>2021-01-10T17:08:37.656Z</time>
      </trkpt>
      <trkpt lat="48.40799" lon="2.63466">
        <ele>135.809877</ele>
        <time>2021-01-10T17:09:50.521Z</time>
      </trkpt>
      <trkpt lat="48.40794" lon="2.63522">
        <ele>135.996106</ele>
        <time>2021-01-10T17:10:05.538Z</time>
      </trkpt>
      <trkpt lat="48.40777" lon="2.63586">
        <ele>136.224885</ele>
        <time>2021-01-10T17:10:23.380Z</time>
      </trkpt>
      <trkpt lat="48.40756" lon="2.63623">
        <ele>136.372689</ele>
        <time>2021-01-10T17:10:36.245Z</time>
      </trkpt>
      <trkpt lat="48.40765" lon="2.6366">
        <ele>136.455379</ele>
        <time>2021-01-10T17:10:46.342Z</time>
      </trkpt>
      <trkpt lat="48.40772" lon="2.63692">
        <ele>136.528016</ele>
        <time>2021-01-10T17:10:55.397Z</time>
      </trkpt>
      <trkpt lat="48.40772" lon="2.63731">
        <ele>136.612915</ele>
        <time>2021-01-10T17:11:06.043Z</time>
      </trkpt>
      <trkpt lat="48.40781" lon="2.6376">
        <ele>136.680685</ele>
        <time>2021-01-10T17:11:13.964Z</time>
      </trkpt>
      <trkpt lat="48.40804" lon="2.63765">
        <ele>136.75607</ele>
        <time>2021-01-10T17:11:23.161Z</time>
      </trkpt>
      <trkpt lat="48.40811" lon="2.63774">
        <ele>136.784801</ele>
        <time>2021-01-10T17:11:26.717Z</time>
      </trkpt>
      <trkpt lat="48.40825" lon="2.63777">
        <ele>136.831268</ele>
        <time>2021-01-10T17:11:32.707Z</time>
      </trkpt>
      <trkpt lat="48.40852" lon="2.63778">
        <ele>136.918906</ele>
        <time>2021-01-10T17:11:43.878Z</time>
      </trkpt>
      <trkpt lat="48.40854" lon="2.63776">
        <ele>136.924565</ele>
        <time>2021-01-10T17:11:44.847Z</time>
      </trkpt>
      <trkpt lat="48.40856" lon="2.63784">
        <ele>136.957033</ele>
        <time>2021-01-10T17:11:46.836Z</time>
      </trkpt>
      <trkpt lat="48.40857" lon="2.63787">
        <ele>136.973078</ele>
        <time>2021-01-10T17:11:47.787Z</time>
      </trkpt>
      <trkpt lat="48.40866" lon="2.63801">
        <ele>137.056683</ele>
        <time>2021-01-10T17:11:51.946Z</time>
      </trkpt>
      <trkpt lat="48.40872" lon="2.63809">
        <ele>137.108067</ele>
        <time>2021-01-10T17:11:54.741Z</time>
      </trkpt>
      <trkpt lat="48.40866" lon="2.6385">
        <ele>137.29179</ele>
        <time>2021-01-10T17:12:02.891Z</time>
      </trkpt>
      <trkpt lat="48.40863" lon="2.63875">
        <ele>137.401401</ele>
        <time>2021-01-10T17:12:07.994Z</time>
      </trkpt>
      <trkpt lat="48.40861" lon="2.63887">
        <ele>137.455569</ele>
        <time>2021-01-10T17:12:10.463Z</time>
      </trkpt>
      <trkpt lat="48.40867" lon="2.63894">
        <ele>137.501218</ele>
        <time>2021-01-10T17:12:12.442Z</time>
      </trkpt>
      <trkpt lat="48.40861" lon="2.63887">
        <ele>137.546866</ele>
        <time>2021-01-10T17:12:14.108Z</time>
      </trkpt>
      <trkpt lat="48.40863" lon="2.63875">
        <ele>137.601034</ele>
        <time>2021-01-10T17:12:16.583Z</time>
      </trkpt>
      <trkpt lat="48.40866" lon="2.6385">
        <ele>137.710645</ele>
        <time>2021-01-10T17:12:21.820Z</time>
      </trkpt>
      <trkpt lat="48.40872" lon="2.63809">
        <ele>137.894368</ele>
        <time>2021-01-10T17:12:29.636Z</time>
      </trkpt>
      <trkpt lat="48.40873" lon="2.63801">
        <ele>137.927743</ele>
        <time>2021-01-10T17:12:31.142Z</time>
      </trkpt>
      <trkpt lat="48.40924" lon="2.63498">
        <ele>138.299225</ele>
        <time>2021-01-10T17:13:37.299Z</time>
      </trkpt>
      <trkpt lat="48.40931" lon="2.63454">
        <ele>138.046226</ele>
        <time>2021-01-10T17:13:45.507Z</time>
      </trkpt>
      <trkpt lat="48.40947" lon="2.6337">
        <ele>137.556371</ele>
        <time>2021-01-10T17:14:01.342Z</time>
      </trkpt>
      <trkpt lat="48.40949" lon="2.63323">
        <ele>137.29403</ele>
        <time>2021-01-10T17:14:09.694Z</time>
      </trkpt>
      <trkpt lat="48.40956" lon="2.63298">
        <ele>137.140981</ele>
        <time>2021-01-10T17:14:14.584Z</time>
      </trkpt>
      <trkpt lat="48.40961" lon="2.63302">
        <ele>137.092176</ele>
        <time>2021-01-10T17:14:17.160Z</time>
      </trkpt>
      <trkpt lat="48.40956" lon="2.63298">
        <ele>137.043371</ele>
        <time>2021-01-10T17:14:18.990Z</time>
      </trkpt>
      <trkpt lat="48.40948" lon="2.63245">
        <ele>136.769631</ele>
        <time>2021-01-10T17:14:32.093Z</time>
      </trkpt>
      <trkpt lat="48.40933" lon="2.63187">
        <ele>136.653628</ele>
        <time>2021-01-10T17:14:47.141Z</time>
      </trkpt>
      <trkpt lat="48.40955" lon="2.63155">
        <ele>136.565864</ele>
        <time>2021-01-10T17:14:58.355Z</time>
      </trkpt>
      <trkpt lat="48.41011" lon="2.63073">
        <ele>136.341903</ele>
        <time>2021-01-10T17:15:27.638Z</time>
      </trkpt>
      <trkpt lat="48.41037" lon="2.63037">
        <ele>136.225616</ele>
        <time>2021-01-10T17:15:41.098Z</time>
      </trkpt>
      <trkpt lat="48.41138" lon="2.62895">
        <ele>135.57799</ele>
        <time>2021-01-10T17:16:33.777Z</time>
      </trkpt>
      <trkpt lat="48.41274" lon="2.62695">
        <ele>131.955787</ele>
        <time>2021-01-10T17:17:36.854Z</time>
      </trkpt>
      <trkpt lat="48.41302" lon="2.62652">
        <ele>130.528424</ele>
        <time>2021-01-10T17:17:49.098Z</time>
      </trkpt>
      <trkpt lat="48.41356" lon="2.62581">
        <ele>126.874931</ele>
        <time>2021-01-10T17:18:10.085Z</time>
      </trkpt>
      <trkpt lat="48.4141" lon="2.62532">
        <ele>123.651233</ele>
        <time>2021-01-10T17:18:27.663Z</time>
      </trkpt>
      <trkpt lat="48.41449" lon="2.62499">
        <ele>121.629864</ele>
        <time>2021-01-10T17:18:40.150Z</time>
      </trkpt>
      <trkpt lat="48.4151" lon="2.62473">
        <ele>119.396757</ele>
        <time>2021-01-10T17:18:57.956Z</time>
      </trkpt>
      <trkpt lat="48.41555" lon="2.62475">
        <ele>117.797095</ele>
        <time>2021-01-10T17:19:12.020Z</time>
      </trkpt>
      <trkpt lat="48.41573" lon="2.6249">
        <ele>117.058974</ele>
        <time>2021-01-10T17:19:18.549Z</time>
      </trkpt>
      <trkpt lat="48.41579" lon="2.62495">
        <ele>116.810251</ele>
        <time>2021-01-10T17:19:20.939Z</time>
      </trkpt>
      <trkpt lat="48.41575" lon="2.62507">
        <ele>116.502446</ele>
        <time>2021-01-10T17:19:23.438Z</time>
      </trkpt>
      <trkpt lat="48.41579" lon="2.62495">
        <ele>116.194641</ele>
        <time>2021-01-10T17:19:24.916Z</time>
      </trkpt>
      <trkpt lat="48.41598" lon="2.62582">
        <ele>117.90681</ele>
        <time>2021-01-10T17:19:52.510Z</time>
      </trkpt>
      <trkpt lat="48.41587" lon="2.62668">
        <ele>120.108845</ele>
        <time>2021-01-10T17:20:27.700Z</time>
      </trkpt>
      <trkpt lat="48.41587" lon="2.62693">
        <ele>120.752409</ele>
        <time>2021-01-10T17:20:41.859Z</time>
      </trkpt>
      <trkpt lat="48.41596" lon="2.62715">
        <ele>121.368898</ele>
        <time>2021-01-10T17:20:53.140Z</time>
      </trkpt>
      <trkpt lat="48.41631" lon="2.62764">
        <ele>123.307376</ele>
        <time>2021-01-10T17:21:32.118Z</time>
      </trkpt>
      <trkpt lat="48.41682" lon="2.62792">
        <ele>125.854885</ele>
        <time>2021-01-10T17:22:15.487Z</time>
      </trkpt>
      <trkpt lat="48.41754" lon="2.62816">
        <ele>129.320455</ele>
        <time>2021-01-10T17:23:05.331Z</time>
      </trkpt>
      <trkpt lat="48.41799" lon="2.62831">
        <ele>130.98288</ele>
        <time>2021-01-10T17:23:29.758Z</time>
      </trkpt>
      <trkpt lat="48.41854" lon="2.62869">
        <ele>129.346572</ele>
        <time>2021-01-10T17:23:52.169Z</time>
      </trkpt>
      <trkpt lat="48.4189" lon="2.62894">
        <ele>128.242114</ele>
        <time>2021-01-10T17:24:04.995Z</time>
      </trkpt>
      <trkpt lat="48.41902" lon="2.6291">
        <ele>127.817464</ele>
        <time>2021-01-10T17:24:09.640Z</time>
      </trkpt>
      <trkpt lat="48.41932" lon="2.62915">
        <ele>126.988272</ele>
        <time>2021-01-10T17:24:18.240Z</time>
      </trkpt>
      <trkpt lat="48.4194" lon="2.62905">
        <ele>126.693471</ele>
        <time>2021-01-10T17:24:21.151Z</time>
      </trkpt>
      <trkpt lat="48.41959" lon="2.62854">
        <ele>124.870957</ele>
        <time>2021-01-10T17:24:31.707Z</time>
      </trkpt>
      <trkpt lat="48.42057" lon="2.62918">
        <ele>118.396919</ele>
        <time>2021-01-10T17:25:00.691Z</time>
      </trkpt>
      <trkpt lat="48.42243" lon="2.63057">
        <ele>110.153331</ele>
        <time>2021-01-10T17:26:03.025Z</time>
      </trkpt>
      <trkpt lat="48.42227" lon="2.63063">
        <ele>109.603275</ele>
        <time>2021-01-10T17:26:09.770Z</time>
      </trkpt>
      <trkpt lat="48.42243" lon="2.63057">
        <ele>109.455572</ele>
        <time>2021-01-10T17:26:15.402Z</time>
      </trkpt>
      <trkpt lat="48.42252" lon="2.63197">
        <ele>109.896137</ele>
        <time>2021-01-10T17:26:54.205Z</time>
      </trkpt>
      <trkpt lat="48.42266" lon="2.63369">
        <ele>110.752572</ele>
        <time>2021-01-10T17:27:48.211Z</time>
      </trkpt>
      <trkpt lat="48.42279" lon="2.63561">
        <ele>112.384433</ele>
        <time>2021-01-10T17:28:46.857Z</time>
      </trkpt>
      <trkpt lat="48.42298" lon="2.63742">
        <ele>113.933493</ele>
        <time>2021-01-10T17:29:40.429Z</time>
      </trkpt>
      <trkpt lat="48.42315" lon="2.63851">
        <ele>114.967956</ele>
        <time>2021-01-10T17:30:15.102Z</time>
      </trkpt>
      <trkpt lat="48.42333" lon="2.63954">
        <ele>117.518686</ele>
        <time>2021-01-10T17:30:51.815Z</time>
      </trkpt>
      <trkpt lat="48.42436" lon="2.63837">
        <ele>122.641542</ele>
        <time>2021-01-10T17:32:17.080Z</time>
      </trkpt>
      <trkpt lat="48.42486" lon="2.63827">
        <ele>125.449132</ele>
        <time>2021-01-10T17:32:53.662Z</time>
      </trkpt>
      <trkpt lat="48.42571" lon="2.63931">
        <ele>131.458179</ele>
        <time>2021-01-10T17:34:14.653Z</time>
      </trkpt>
      <trkpt lat="48.42655" lon="2.6401">
        <ele>135.775815</ele>
        <time>2021-01-10T17:35:22.411Z</time>
      </trkpt>
      <trkpt lat="48.42661" lon="2.64015">
        <ele>136.071098</ele>
        <time>2021-01-10T17:35:28.419Z</time>
      </trkpt>
      <trkpt lat="48.42858" lon="2.64116">
        <ele>141.688226</ele>
        <time>2021-01-10T17:37:21.357Z</time>
      </trkpt>
      <trkpt lat="48.42865" lon="2.64132">
        <ele>141.922024</ele>
        <time>2021-01-10T17:37:26.184Z</time>
      </trkpt>
      <trkpt lat="48.42903" lon="2.64274">
        <ele>142.23141</ele>
        <time>2021-01-10T17:38:03.273Z</time>
      </trkpt>
      <trkpt lat="48.42906" lon="2.6425">
        <ele>142.177839</ele>
        <time>2021-01-10T17:38:09.195Z</time>
      </trkpt>
      <trkpt lat="48.42925" lon="2.64136">
        <ele>141.926763</ele>
        <time>2021-01-10T17:38:36.966Z</time>
      </trkpt>
      <trkpt lat="48.42945" lon="2.64093">
        <ele>142.01099</ele>
        <time>2021-01-10T17:38:51.298Z</time>
      </trkpt>
      <trkpt lat="48.42971" lon="2.63974">
        <ele>142.502847</ele>
        <time>2021-01-10T17:39:27.289Z</time>
      </trkpt>
      <trkpt lat="48.4297" lon="2.63966">
        <ele>142.53606</ele>
        <time>2021-01-10T17:39:30.085Z</time>
      </trkpt>
      <trkpt lat="48.4297" lon="2.63921">
        <ele>142.711555</ele>
        <time>2021-01-10T17:39:42.197Z</time>
      </trkpt>
      <trkpt lat="48.42966" lon="2.63899">
        <ele>142.802759</ele>
        <time>2021-01-10T17:39:49.409Z</time>
      </trkpt>
      <trkpt lat="48.42967" lon="2.63887">
        <ele>142.851106</ele>
        <time>2021-01-10T17:39:52.695Z</time>
      </trkpt>
      <trkpt lat="48.42968" lon="2.63879">
        <ele>142.883986</ele>
        <time>2021-01-10T17:39:53.946Z</time>
      </trkpt>
      <trkpt lat="48.42976" lon="2.63845">
        <ele>142.986077</ele>
        <time>2021-01-10T17:40:01.193Z</time>
      </trkpt>
      <trkpt lat="48.42979" lon="2.63833">
        <ele>143.008187</ele>
        <time>2021-01-10T17:40:03.249Z</time>
      </trkpt>
      <trkpt lat="48.42986" lon="2.63798">
        <ele>143.072496</ele>
        <time>2021-01-10T17:40:09.742Z</time>
      </trkpt>
      <trkpt lat="48.42993" lon="2.6378">
        <ele>143.110114</ele>
        <time>2021-01-10T17:40:13.000Z</time>
      </trkpt>
      <trkpt lat="48.42996" lon="2.63773">
        <ele>143.124841</ele>
        <time>2021-01-10T17:40:14.943Z</time>
      </trkpt>
      <trkpt lat="48.42998" lon="2.63741">
        <ele>143.181776</ele>
        <time>2021-01-10T17:40:24.022Z</time>
      </trkpt>
      <trkpt lat="48.43007" lon="2.6361">
        <ele>143.416468</ele>
        <time>2021-01-10T17:40:57.961Z</time>
      </trkpt>
      <trkpt lat="48.4302" lon="2.63544">
        <ele>143.509578</ele>
        <time>2021-01-10T17:41:08.805Z</time>
      </trkpt>
      <trkpt lat="48.43009" lon="2.63521">
        <ele>143.545978</ele>
        <time>2021-01-10T17:41:16.945Z</time>
      </trkpt>
      <trkpt lat="48.43013" lon="2.63512">
        <ele>143.559414</ele>
        <time>2021-01-10T17:41:19.887Z</time>
      </trkpt>
      <trkpt lat="48.43022" lon="2.63486">
        <ele>143.597134</ele>
        <time>2021-01-10T17:41:27.853Z</time>
      </trkpt>
      <trkpt lat="48.43048" lon="2.6339">
        <ele>143.73213</ele>
        <time>2021-01-10T17:41:56.380Z</time>
      </trkpt>
      <trkpt lat="48.43077" lon="2.63215">
        <ele>142.278477</ele>
        <time>2021-01-10T17:42:39.735Z</time>
      </trkpt>
      <trkpt lat="48.43127" lon="2.62972">
        <ele>138.767617</ele>
        <time>2021-01-10T17:43:32.956Z</time>
      </trkpt>
      <trkpt lat="48.43158" lon="2.62858">
        <ele>136.643679</ele>
        <time>2021-01-10T17:43:58.822Z</time>
      </trkpt>
      <trkpt lat="48.43204" lon="2.62665">
        <ele>134.428637</ele>
        <time>2021-01-10T17:44:45.486Z</time>
      </trkpt>
      <trkpt lat="48.43234" lon="2.62451">
        <ele>130.017535</ele>
        <time>2021-01-10T17:45:35.229Z</time>
      </trkpt>
      <trkpt lat="48.4324" lon="2.62375">
        <ele>127.922533</ele>
        <time>2021-01-10T17:45:50.062Z</time>
      </trkpt>
      <trkpt lat="48.4324" lon="2.62369">
        <ele>127.7718</ele>
        <time>2021-01-10T17:45:51.112Z</time>
      </trkpt>
      <trkpt lat="48.43254" lon="2.62382">
        <ele>127.104705</ele>
        <time>2021-01-10T17:45:55.666Z</time>
      </trkpt>
      <trkpt lat="48.43271" lon="2.62397">
        <ele>126.297945</ele>
        <time>2021-01-10T17:46:00.823Z</time>
      </trkpt>
      <trkpt lat="48.43306" lon="2.62407">
        <ele>123.211882</ele>
        <time>2021-01-10T17:46:10.208Z</time>
      </trkpt>
      <trkpt lat="48.43347" lon="2.62398">
        <ele>119.30366</ele>
        <time>2021-01-10T17:46:21.109Z</time>
      </trkpt>
      <trkpt lat="48.43391" lon="2.62402">
        <ele>115.278764</ele>
        <time>2021-01-10T17:46:32.207Z</time>
      </trkpt>
      <trkpt lat="48.43415" lon="2.62404">
        <ele>112.982691</ele>
        <time>2021-01-10T17:46:38.442Z</time>
      </trkpt>
      <trkpt lat="48.43468" lon="2.62423">
        <ele>108.552264</ele>
        <time>2021-01-10T17:46:52.703Z</time>
      </trkpt>
      <trkpt lat="48.43502" lon="2.62434">
        <ele>106.63468</ele>
        <time>2021-01-10T17:47:01.931Z</time>
      </trkpt>
      <trkpt lat="48.43583" lon="2.62408">
        <ele>102.013723</ele>
        <time>2021-01-10T17:47:25.591Z</time>
      </trkpt>
      <trkpt lat="48.43632" lon="2.62404">
        <ele>99.393353</ele>
        <time>2021-01-10T17:47:41.293Z</time>
      </trkpt>
      <trkpt lat="48.43642" lon="2.62414">
        <ele>99.221627</ele>
        <time>2021-01-10T17:47:45.231Z</time>
      </trkpt>
      <trkpt lat="48.43667" lon="2.62413">
        <ele>98.871113</ele>
        <time>2021-01-10T17:47:53.650Z</time>
      </trkpt>
      <trkpt lat="48.43758" lon="2.62347">
        <ele>97.448024</ele>
        <time>2021-01-10T17:48:28.691Z</time>
      </trkpt>
      <trkpt lat="48.43825" lon="2.62341">
        <ele>96.726896</ele>
        <time>2021-01-10T17:48:52.615Z</time>
      </trkpt>
      <trkpt lat="48.43917" lon="2.62393">
        <ele>96.148087</ele>
        <time>2021-01-10T17:49:28.010Z</time>
      </trkpt>
      <trkpt lat="48.4403" lon="2.62411">
        <ele>95.827917</ele>
        <time>2021-01-10T17:50:10.038Z</time>
      </trkpt>
      <trkpt lat="48.4404" lon="2.62438">
        <ele>95.827917</ele>
        <time>2021-01-10T17:50:17.857Z</time>
      </trkpt>
      <trkpt lat="48.44058" lon="2.62438">
        <ele>95.827917</ele>
        <time>2021-01-10T17:50:21.968Z</time>
      </trkpt>
    </trkseg>
  </trk>
</gpx>